Richmond, Maine
Current Conditions -  °F | °C
As of 1:53 AM on Sunday 23 Nov 2014 (Local Time) from KIWI Reporting Station
Clear Clear  
Wind Chill:   Ceiling: Unl
Heat Index:   Visibility: 10mi
Dew Point: -6°   Wind: 0mph
Humidity: 59%   Direction: NA
Pressure: 29.98"   Gusts: NA
Location:  44.09°N, 69.8°W
Report Text: KIWI 230653Z AUTO 00000KT 10SM CLR 01/M06 A2998 RMK AO2 SLP152 T00111061
Loading
Personal Weather Stations






























Interactive Weather Map New forecast layout! Learn more

10-Day Weather Forecast

Advertisements
Track Severe Weather on mobile